Terminal Aerodrome Forecast
Issued by NWS Cleveland, OH

Home | Current Version | Previous Version | Graphics & Text | Print | Product List | Glossary Off
Versions: 1 2 3 4 5 6 7 8 9 10 11 12 13

000
FTUS41 KCLE 190200 AAA
TAFTOL
TAF AMD
KTOL 190258Z 1903/1924 06004KT P6SM SCT020
      TEMPO 1903/1906 BKN020
     FM191000 08004KT 6SM BR SKC
      TEMPO 1910/1913 4SM BR
     FM191330 10005KT P6SM SKC
     FM191600 12007KT P6SM SCT045=

USA.gov is the U.S. government's official web portal to all federal, state and local government web resources and services.